sensor_id;sensor_type;location;lat;lon;timestamp;temperature;humidity
72277;SHT30;61204;49.980;8.358;2023-01-28T00:00:06;3.09;83.66
72277;SHT30;61204;49.980;8.358;2023-01-28T00:02:34;3.06;83.65
72277;SHT30;61204;49.980;8.358;2023-01-28T00:05:00;3.03;83.78
72277;SHT30;61204;49.980;8.358;2023-01-28T00:07:26;2.96;83.90
72277;SHT30;61204;49.980;8.358;2023-01-28T00:09:51;2.95;83.97
72277;SHT30;61204;49.980;8.358;2023-01-28T00:12:17;2.86;84.30
72277;SHT30;61204;49.980;8.358;2023-01-28T00:14:42;2.76;84.58
72277;SHT30;61204;49.980;8.358;2023-01-28T00:17:10;2.76;84.55
72277;SHT30;61204;49.980;8.358;2023-01-28T00:19:39;2.74;84.79
72277;SHT30;61204;49.980;8.358;2023-01-28T00:22:05;2.72;85.06
72277;SHT30;61204;49.980;8.358;2023-01-28T00:24:30;2.72;84.97
72277;SHT30;61204;49.980;8.358;2023-01-28T00:26:55;2.71;85.05
72277;SHT30;61204;49.980;8.358;2023-01-28T00:29:21;2.71;84.83
72277;SHT30;61204;49.980;8.358;2023-01-28T00:31:46;2.65;84.95
72277;SHT30;61204;49.980;8.358;2023-01-28T00:34:12;2.64;84.92
72277;SHT30;61204;49.980;8.358;2023-01-28T00:36:37;2.57;85.06
72277;SHT30;61204;49.980;8.358;2023-01-28T00:39:06;2.55;85.34
72277;SHT30;61204;49.980;8.358;2023-01-28T00:41:37;2.47;85.37
72277;SHT30;61204;49.980;8.358;2023-01-28T00:44:03;2.45;85.55
72277;SHT30;61204;49.980;8.358;2023-01-28T00:46:31;2.44;85.77
72277;SHT30;61204;49.980;8.358;2023-01-28T00:48:56;2.37;85.83
72277;SHT30;61204;49.980;8.358;2023-01-28T00:51:22;2.40;86.03
72277;SHT30;61204;49.980;8.358;2023-01-28T00:53:48;2.38;86.03
72277;SHT30;61204;49.980;8.358;2023-01-28T00:56:17;2.36;86.17
72277;SHT30;61204;49.980;8.358;2023-01-28T00:58:43;2.33;86.09
72277;SHT30;61204;49.980;8.358;2023-01-28T01:03:36;2.31;86.07
72277;SHT30;61204;49.980;8.358;2023-01-28T01:06:02;2.34;85.95
72277;SHT30;61204;49.980;8.358;2023-01-28T01:08:29;2.34;85.95
72277;SHT30;61204;49.980;8.358;2023-01-28T01:11:02;2.33;85.93
72277;SHT30;61204;49.980;8.358;2023-01-28T01:13:29;2.34;85.91
72277;SHT30;61204;49.980;8.358;2023-01-28T01:16:03;2.34;85.75
72277;SHT30;61204;49.980;8.358;2023-01-28T01:18:31;2.37;85.58
72277;SHT30;61204;49.980;8.358;2023-01-28T01:20:59;2.38;85.63
72277;SHT30;61204;49.980;8.358;2023-01-28T01:23:26;2.40;85.50
72277;SHT30;61204;49.980;8.358;2023-01-28T01:25:52;2.41;85.38
72277;SHT30;61204;49.980;8.358;2023-01-28T01:28:18;2.40;85.29
72277;SHT30;61204;49.980;8.358;2023-01-28T01:30:45;2.41;85.34
72277;SHT30;61204;49.980;8.358;2023-01-28T01:33:11;2.40;85.22
72277;SHT30;61204;49.980;8.358;2023-01-28T01:35:37;2.42;85.29
72277;SHT30;61204;49.980;8.358;2023-01-28T01:38:02;2.42;84.93
72277;SHT30;61204;49.980;8.358;2023-01-28T01:40:30;2.40;84.89
72277;SHT30;61204;49.980;8.358;2023-01-28T01:42:55;2.42;84.77
72277;SHT30;61204;49.980;8.358;2023-01-28T01:45:21;2.44;84.81
72277;SHT30;61204;49.980;8.358;2023-01-28T01:50:22;2.45;84.70
72277;SHT30;61204;49.980;8.358;2023-01-28T01:52:56;2.44;84.73
72277;SHT30;61204;49.980;8.358;2023-01-28T01:55:30;2.44;84.62
72277;SHT30;61204;49.980;8.358;2023-01-28T01:58:01;2.45;84.70
72277;SHT30;61204;49.980;8.358;2023-01-28T02:00:34;2.44;84.62
72277;SHT30;61204;49.980;8.358;2023-01-28T02:03:00;2.44;84.68
72277;SHT30;61204;49.980;8.358;2023-01-28T02:05:26;2.44;84.97
72277;SHT30;61204;49.980;8.358;2023-01-28T02:07:56;2.45;84.80
72277;SHT30;61204;49.980;8.358;2023-01-28T02:10:42;2.45;84.97
72277;SHT30;61204;49.980;8.358;2023-01-28T02:13:09;2.44;84.99
72277;SHT30;61204;49.980;8.358;2023-01-28T02:15:34;2.44;84.79
72277;SHT30;61204;49.980;8.358;2023-01-28T02:18:00;2.41;84.67
72277;SHT30;61204;49.980;8.358;2023-01-28T02:20:56;2.45;84.78
72277;SHT30;61204;49.980;8.358;2023-01-28T02:23:33;2.44;84.83
72277;SHT30;61204;49.980;8.358;2023-01-28T02:29:16;2.41;84.60
72277;SHT30;61204;49.980;8.358;2023-01-28T02:32:09;2.47;84.08
72277;SHT30;61204;49.980;8.358;2023-01-28T02:34:55;2.47;83.93
72277;SHT30;61204;49.980;8.358;2023-01-28T02:37:37;2.48;83.80
72277;SHT30;61204;49.980;8.358;2023-01-28T02:40:11;2.50;84.11
72277;SHT30;61204;49.980;8.358;2023-01-28T02:42:44;2.45;83.94
72277;SHT30;61204;49.980;8.358;2023-01-28T02:45:19;2.48;84.03
72277;SHT30;61204;49.980;8.358;2023-01-28T02:47:48;2.47;84.60
72277;SHT30;61204;49.980;8.358;2023-01-28T02:50:25;2.45;84.61
72277;SHT30;61204;49.980;8.358;2023-01-28T02:53:12;2.44;85.29
72277;SHT30;61204;49.980;8.358;2023-01-28T02:56:31;2.44;85.30
72277;SHT30;61204;49.980;8.358;2023-01-28T02:59:10;2.44;85.27
72277;SHT30;61204;49.980;8.358;2023-01-28T03:02:12;2.41;85.33
72277;SHT30;61204;49.980;8.358;2023-01-28T03:07:33;2.41;85.17
72277;SHT30;61204;49.980;8.358;2023-01-28T03:10:05;2.40;85.06
72277;SHT30;61204;49.980;8.358;2023-01-28T03:12:34;2.40;85.20
72277;SHT30;61204;49.980;8.358;2023-01-28T03:15:25;2.38;84.97
72277;SHT30;61204;49.980;8.358;2023-01-28T03:18:39;2.44;85.03
72277;SHT30;61204;49.980;8.358;2023-01-28T03:21:39;2.40;84.81
72277;SHT30;61204;49.980;8.358;2023-01-28T03:24:29;2.40;84.69
72277;SHT30;61204;49.980;8.358;2023-01-28T03:27:31;2.44;84.59
72277;SHT30;61204;49.980;8.358;2023-01-28T03:30:28;2.41;84.73
72277;SHT30;61204;49.980;8.358;2023-01-28T03:33:21;2.42;84.96
72277;SHT30;61204;49.980;8.358;2023-01-28T03:36:07;2.41;85.70
72277;SHT30;61204;49.980;8.358;2023-01-28T03:38:52;2.42;86.33
72277;SHT30;61204;49.980;8.358;2023-01-28T03:41:22;2.40;86.41
72277;SHT30;61204;49.980;8.358;2023-01-28T03:43:49;2.37;86.82
72277;SHT30;61204;49.980;8.358;2023-01-28T03:46:15;2.36;87.27
72277;SHT30;61204;49.980;8.358;2023-01-28T03:48:42;2.34;87.01
72277;SHT30;61204;49.980;8.358;2023-01-28T03:51:08;2.33;87.25
72277;SHT30;61204;49.980;8.358;2023-01-28T03:53:33;2.33;87.05
72277;SHT30;61204;49.980;8.358;2023-01-28T03:55:59;2.34;86.80
72277;SHT30;61204;49.980;8.358;2023-01-28T03:58:25;2.34;86.87
72277;SHT30;61204;49.980;8.358;2023-01-28T04:01:11;2.31;86.65
72277;SHT30;61204;49.980;8.358;2023-01-28T04:03:37;2.31;86.78
72277;SHT30;61204;49.980;8.358;2023-01-28T04:06:05;2.30;87.17
72277;SHT30;61204;49.980;8.358;2023-01-28T04:08:33;2.30;87.05
72277;SHT30;61204;49.980;8.358;2023-01-28T04:10:59;2.30;86.82
72277;SHT30;61204;49.980;8.358;2023-01-28T04:13:42;2.30;86.52
72277;SHT30;61204;49.980;8.358;2023-01-28T04:16:12;2.34;86.26
72277;SHT30;61204;49.980;8.358;2023-01-28T04:18:38;2.34;86.01
72277;SHT30;61204;49.980;8.358;2023-01-28T04:21:04;2.34;85.94
72277;SHT30;61204;49.980;8.358;2023-01-28T04:23:30;2.36;86.38
72277;SHT30;61204;49.980;8.358;2023-01-28T04:25:55;2.36;86.28
72277;SHT30;61204;49.980;8.358;2023-01-28T04:28:21;2.33;86.69
72277;SHT30;61204;49.980;8.358;2023-01-28T04:30:47;2.33;86.13
72277;SHT30;61204;49.980;8.358;2023-01-28T04:33:12;2.31;86.38
72277;SHT30;61204;49.980;8.358;2023-01-28T04:35:38;2.33;86.01
72277;SHT30;61204;49.980;8.358;2023-01-28T04:38:04;2.36;85.82
72277;SHT30;61204;49.980;8.358;2023-01-28T04:40:29;2.33;85.50
72277;SHT30;61204;49.980;8.358;2023-01-28T04:42:55;2.36;85.14
72277;SHT30;61204;49.980;8.358;2023-01-28T04:45:22;2.34;85.67
72277;SHT30;61204;49.980;8.358;2023-01-28T04:47:50;2.34;85.82
72277;SHT30;61204;49.980;8.358;2023-01-28T04:50:15;2.33;85.05
72277;SHT30;61204;49.980;8.358;2023-01-28T04:52:41;2.31;85.12
72277;SHT30;61204;49.980;8.358;2023-01-28T04:55:08;2.30;85.09
72277;SHT30;61204;49.980;8.358;2023-01-28T04:57:34;2.31;84.88
72277;SHT30;61204;49.980;8.358;2023-01-28T04:59:59;2.30;85.34
72277;SHT30;61204;49.980;8.358;2023-01-28T05:02:25;2.29;85.15
72277;SHT30;61204;49.980;8.358;2023-01-28T05:04:50;2.31;85.11
72277;SHT30;61204;49.980;8.358;2023-01-28T05:07:34;2.34;84.84
72277;SHT30;61204;49.980;8.358;2023-01-28T05:10:00;2.36;85.13
72277;SHT30;61204;49.980;8.358;2023-01-28T05:12:28;2.36;84.71
72277;SHT30;61204;49.980;8.358;2023-01-28T05:14:57;2.37;84.69
72277;SHT30;61204;49.980;8.358;2023-01-28T05:17:27;2.34;84.67
72277;SHT30;61204;49.980;8.358;2023-01-28T05:19:53;2.41;84.45
72277;SHT30;61204;49.980;8.358;2023-01-28T05:22:18;2.42;84.42
72277;SHT30;61204;49.980;8.358;2023-01-28T05:24:44;2.41;84.27
72277;SHT30;61204;49.980;8.358;2023-01-28T05:27:09;2.40;83.91
72277;SHT30;61204;49.980;8.358;2023-01-28T05:29:35;2.36;84.17
72277;SHT30;61204;49.980;8.358;2023-01-28T05:32:01;2.36;83.96
72277;SHT30;61204;49.980;8.358;2023-01-28T05:34:31;2.36;84.19
72277;SHT30;61204;49.980;8.358;2023-01-28T05:36:59;2.44;83.31
72277;SHT30;61204;49.980;8.358;2023-01-28T05:39:24;2.44;82.96
72277;SHT30;61204;49.980;8.358;2023-01-28T05:41:49;2.42;82.54
72277;SHT30;61204;49.980;8.358;2023-01-28T05:44:15;2.45;81.97
72277;SHT30;61204;49.980;8.358;2023-01-28T05:46:40;2.44;81.72
72277;SHT30;61204;49.980;8.358;2023-01-28T05:49:10;2.51;81.47
72277;SHT30;61204;49.980;8.358;2023-01-28T05:51:40;2.51;81.09
72277;SHT30;61204;49.980;8.358;2023-01-28T05:54:06;2.55;81.09
72277;SHT30;61204;49.980;8.358;2023-01-28T05:56:33;2.57;80.94
72277;SHT30;61204;49.980;8.358;2023-01-28T05:59:02;2.55;80.94
72277;SHT30;61204;49.980;8.358;2023-01-28T06:01:28;2.54;80.78
72277;SHT30;61204;49.980;8.358;2023-01-28T06:03:56;2.55;80.51
72277;SHT30;61204;49.980;8.358;2023-01-28T06:06:21;2.55;80.41
72277;SHT30;61204;49.980;8.358;2023-01-28T06:08:47;2.58;80.44
72277;SHT30;61204;49.980;8.358;2023-01-28T06:11:12;2.52;80.50
72277;SHT30;61204;49.980;8.358;2023-01-28T06:13:38;2.52;80.63
72277;SHT30;61204;49.980;8.358;2023-01-28T06:16:06;2.48;80.41
72277;SHT30;61204;49.980;8.358;2023-01-28T06:18:32;2.50;80.73
72277;SHT30;61204;49.980;8.358;2023-01-28T06:21:00;2.51;80.69
72277;SHT30;61204;49.980;8.358;2023-01-28T06:23:26;2.50;80.79
72277;SHT30;61204;49.980;8.358;2023-01-28T06:25:55;2.50;80.79
72277;SHT30;61204;49.980;8.358;2023-01-28T06:28:21;2.48;80.95
72277;SHT30;61204;49.980;8.358;2023-01-28T06:30:48;2.44;81.14
72277;SHT30;61204;49.980;8.358;2023-01-28T06:33:14;2.42;81.44
72277;SHT30;61204;49.980;8.358;2023-01-28T06:35:40;2.41;81.31
72277;SHT30;61204;49.980;8.358;2023-01-28T06:38:05;2.41;81.40
72277;SHT30;61204;49.980;8.358;2023-01-28T06:40:31;2.38;81.55
72277;SHT30;61204;49.980;8.358;2023-01-28T06:42:56;2.42;81.47
72277;SHT30;61204;49.980;8.358;2023-01-28T06:45:22;2.41;81.64
72277;SHT30;61204;49.980;8.358;2023-01-28T06:47:47;2.38;81.64
72277;SHT30;61204;49.980;8.358;2023-01-28T06:50:13;2.48;81.21
72277;SHT30;61204;49.980;8.358;2023-01-28T06:52:39;2.42;81.50
72277;SHT30;61204;49.980;8.358;2023-01-28T06:55:06;2.47;81.35
72277;SHT30;61204;49.980;8.358;2023-01-28T06:57:32;2.40;81.63
72277;SHT30;61204;49.980;8.358;2023-01-28T06:59:57;2.37;81.53
72277;SHT30;61204;49.980;8.358;2023-01-28T07:02:22;2.37;81.58
72277;SHT30;61204;49.980;8.358;2023-01-28T07:04:50;2.38;81.73
72277;SHT30;61204;49.980;8.358;2023-01-28T07:07:16;2.36;81.55
72277;SHT30;61204;49.980;8.358;2023-01-28T07:09:43;2.31;81.67
72277;SHT30;61204;49.980;8.358;2023-01-28T07:12:09;2.42;81.58
72277;SHT30;61204;49.980;8.358;2023-01-28T07:14:36;2.38;81.43
72277;SHT30;61204;49.980;8.358;2023-01-28T07:17:02;2.41;81.67
72277;SHT30;61204;49.980;8.358;2023-01-28T07:19:27;2.41;81.69
72277;SHT30;61204;49.980;8.358;2023-01-28T07:21:53;2.37;81.73
72277;SHT30;61204;49.980;8.358;2023-01-28T07:24:22;2.40;81.65
72277;SHT30;61204;49.980;8.358;2023-01-28T07:26:47;2.37;81.80
72277;SHT30;61204;49.980;8.358;2023-01-28T07:29:13;2.38;81.86
72277;SHT30;61204;49.980;8.358;2023-01-28T07:31:38;2.38;81.81
72277;SHT30;61204;49.980;8.358;2023-01-28T07:34:04;2.40;81.69
72277;SHT30;61204;49.980;8.358;2023-01-28T07:36:29;2.40;81.46
72277;SHT30;61204;49.980;8.358;2023-01-28T07:38:55;2.37;81.55
72277;SHT30;61204;49.980;8.358;2023-01-28T07:41:20;2.37;81.44
72277;SHT30;61204;49.980;8.358;2023-01-28T07:43:46;2.40;81.15
72277;SHT30;61204;49.980;8.358;2023-01-28T07:46:11;2.38;81.12
72277;SHT30;61204;49.980;8.358;2023-01-28T07:48:37;2.42;81.39
72277;SHT30;61204;49.980;8.358;2023-01-28T07:51:02;2.40;81.35
72277;SHT30;61204;49.980;8.358;2023-01-28T07:53:28;2.41;80.99
72277;SHT30;61204;49.980;8.358;2023-01-28T07:56:00;2.42;81.17
72277;SHT30;61204;49.980;8.358;2023-01-28T07:58:26;2.42;81.12
72277;SHT30;61204;49.980;8.358;2023-01-28T08:00:55;2.42;80.93
72277;SHT30;61204;49.980;8.358;2023-01-28T08:03:23;2.42;80.93
72277;SHT30;61204;49.980;8.358;2023-01-28T08:05:50;2.45;80.42
72277;SHT30;61204;49.980;8.358;2023-01-28T08:08:17;2.47;80.45
72277;SHT30;61204;49.980;8.358;2023-01-28T08:10:44;2.44;80.41
72277;SHT30;61204;49.980;8.358;2023-01-28T08:13:11;2.45;80.52
72277;SHT30;61204;49.980;8.358;2023-01-28T08:15:38;2.42;80.47
72277;SHT30;61204;49.980;8.358;2023-01-28T08:18:05;2.50;80.28
72277;SHT30;61204;49.980;8.358;2023-01-28T08:20:32;2.51;80.47
72277;SHT30;61204;49.980;8.358;2023-01-28T08:25:37;2.54;80.27
72277;SHT30;61204;49.980;8.358;2023-01-28T08:28:04;2.59;79.70
72277;SHT30;61204;49.980;8.358;2023-01-28T08:30:31;2.64;79.61
72277;SHT30;61204;49.980;8.358;2023-01-28T08:32:58;2.65;79.60
72277;SHT30;61204;49.980;8.358;2023-01-28T08:35:25;2.69;79.26
72277;SHT30;61204;49.980;8.358;2023-01-28T08:37:52;2.74;78.65
72277;SHT30;61204;49.980;8.358;2023-01-28T08:40:17;2.71;78.84
72277;SHT30;61204;49.980;8.358;2023-01-28T08:42:50;2.68;78.61
72277;SHT30;61204;49.980;8.358;2023-01-28T08:45:18;2.66;78.20
72277;SHT30;61204;49.980;8.358;2023-01-28T08:48:02;2.68;78.61
72277;SHT30;61204;49.980;8.358;2023-01-28T08:50:32;2.72;78.71
72277;SHT30;61204;49.980;8.358;2023-01-28T08:53:01;2.68;78.05
72277;SHT30;61204;49.980;8.358;2023-01-28T08:55:29;2.68;77.91
72277;SHT30;61204;49.980;8.358;2023-01-28T08:57:55;2.65;77.99
72277;SHT30;61204;49.980;8.358;2023-01-28T09:00:21;2.68;78.34
72277;SHT30;61204;49.980;8.358;2023-01-28T09:02:51;2.68;77.94
72277;SHT30;61204;49.980;8.358;2023-01-28T09:05:17;2.72;79.08
72277;SHT30;61204;49.980;8.358;2023-01-28T09:07:45;2.71;78.53
72277;SHT30;61204;49.980;8.358;2023-01-28T09:10:11;2.71;78.25
72277;SHT30;61204;49.980;8.358;2023-01-28T09:12:37;2.78;78.21
72277;SHT30;61204;49.980;8.358;2023-01-28T09:15:03;2.84;77.98
72277;SHT30;61204;49.980;8.358;2023-01-28T09:17:29;2.75;77.84
72277;SHT30;61204;49.980;8.358;2023-01-28T09:19:55;2.81;77.86
72277;SHT30;61204;49.980;8.358;2023-01-28T09:22:21;2.81;77.76
72277;SHT30;61204;49.980;8.358;2023-01-28T09:24:46;2.85;77.72
72277;SHT30;61204;49.980;8.358;2023-01-28T09:27:11;2.88;78.29
72277;SHT30;61204;49.980;8.358;2023-01-28T09:29:37;2.96;77.66
72277;SHT30;61204;49.980;8.358;2023-01-28T09:32:03;2.96;77.27
72277;SHT30;61204;49.980;8.358;2023-01-28T09:34:31;2.92;77.27
72277;SHT30;61204;49.980;8.358;2023-01-28T09:37:00;2.93;76.66
72277;SHT30;61204;49.980;8.358;2023-01-28T09:39:25;3.05;77.52
72277;SHT30;61204;49.980;8.358;2023-01-28T09:42:07;3.20;77.70
72277;SHT30;61204;49.980;8.358;2023-01-28T09:47:41;3.13;76.18
72277;SHT30;61204;49.980;8.358;2023-01-28T09:50:22;3.31;75.75
72277;SHT30;61204;49.980;8.358;2023-01-28T09:52:48;3.35;75.69
72277;SHT30;61204;49.980;8.358;2023-01-28T09:55:36;3.44;75.20
72277;SHT30;61204;49.980;8.358;2023-01-28T09:58:09;3.42;75.34
72277;SHT30;61204;49.980;8.358;2023-01-28T10:00:46;3.45;74.72
72277;SHT30;61204;49.980;8.358;2023-01-28T10:09:13;3.42;74.37
72277;SHT30;61204;49.980;8.358;2023-01-28T10:18:30;3.79;73.37
72277;SHT30;61204;49.980;8.358;2023-01-28T10:23:59;3.74;74.01
72277;SHT30;61204;49.980;8.358;2023-01-28T10:26:35;3.50;73.70
72277;SHT30;61204;49.980;8.358;2023-01-28T10:29:25;3.41;74.00
72277;SHT30;61204;49.980;8.358;2023-01-28T10:32:01;3.57;74.56
72277;SHT30;61204;49.980;8.358;2023-01-28T10:34:40;3.64;74.12
72277;SHT30;61204;49.980;8.358;2023-01-28T10:37:05;3.68;72.90
72277;SHT30;61204;49.980;8.358;2023-01-28T10:39:33;3.78;72.66
72277;SHT30;61204;49.980;8.358;2023-01-28T10:41:59;3.74;73.29
72277;SHT30;61204;49.980;8.358;2023-01-28T10:44:39;3.75;73.09
72277;SHT30;61204;49.980;8.358;2023-01-28T10:47:15;3.64;72.69
72277;SHT30;61204;49.980;8.358;2023-01-28T10:49:52;3.69;72.71
72277;SHT30;61204;49.980;8.358;2023-01-28T10:52:20;3.72;72.86
72277;SHT30;61204;49.980;8.358;2023-01-28T10:54:45;3.89;73.12
72277;SHT30;61204;49.980;8.358;2023-01-28T10:57:13;3.93;72.20
72277;SHT30;61204;49.980;8.358;2023-01-28T10:59:42;3.90;72.13
72277;SHT30;61204;49.980;8.358;2023-01-28T11:02:36;4.10;72.62
72277;SHT30;61204;49.980;8.358;2023-01-28T11:05:06;4.23;72.25
72277;SHT30;61204;49.980;8.358;2023-01-28T11:07:41;4.17;71.73
72277;SHT30;61204;49.980;8.358;2023-01-28T11:10:29;4.23;71.40
72277;SHT30;61204;49.980;8.358;2023-01-28T11:13:03;4.14;72.16
72277;SHT30;61204;49.980;8.358;2023-01-28T11:15:30;4.04;71.46
72277;SHT30;61204;49.980;8.358;2023-01-28T11:18:05;4.18;71.70
72277;SHT30;61204;49.980;8.358;2023-01-28T11:20:50;4.33;71.24
72277;SHT30;61204;49.980;8.358;2023-01-28T11:23:23;4.25;71.25
72277;SHT30;61204;49.980;8.358;2023-01-28T11:28:31;4.36;70.18
72277;SHT30;61204;49.980;8.358;2023-01-28T11:30:59;4.09;71.09
72277;SHT30;61204;49.980;8.358;2023-01-28T11:33:35;4.29;70.92
72277;SHT30;61204;49.980;8.358;2023-01-28T11:36:32;4.25;69.78
72277;SHT30;61204;49.980;8.358;2023-01-28T11:39:15;4.31;69.90
72277;SHT30;61204;49.980;8.358;2023-01-28T11:41:46;4.34;69.17
72277;SHT30;61204;49.980;8.358;2023-01-28T11:44:25;4.21;69.42
72277;SHT30;61204;49.980;8.358;2023-01-28T12:01:59;3.97;70.55
72277;SHT30;61204;49.980;8.358;2023-01-28T12:09:56;4.10;70.41
72277;SHT30;61204;49.980;8.358;2023-01-28T12:15:38;3.74;69.95
72277;SHT30;61204;49.980;8.358;2023-01-28T12:26:51;3.57;71.10
72277;SHT30;61204;49.980;8.358;2023-01-28T12:29:40;3.40;71.07
72277;SHT30;61204;49.980;8.358;2023-01-28T12:32:36;3.38;71.69
72277;SHT30;61204;49.980;8.358;2023-01-28T12:41:19;3.50;71.18
72277;SHT30;61204;49.980;8.358;2023-01-28T12:43:56;3.54;71.15
72277;SHT30;61204;49.980;8.358;2023-01-28T12:46:51;3.40;70.78
72277;SHT30;61204;49.980;8.358;2023-01-28T12:49:34;3.41;70.69
72277;SHT30;61204;49.980;8.358;2023-01-28T12:57:45;2.81;72.66
72277;SHT30;61204;49.980;8.358;2023-01-28T13:00:24;2.91;72.92
72277;SHT30;61204;49.980;8.358;2023-01-28T13:06:05;3.05;72.59
72277;SHT30;61204;49.980;8.358;2023-01-28T13:08:37;3.10;71.84
72277;SHT30;61204;49.980;8.358;2023-01-28T13:11:03;2.99;71.82
72277;SHT30;61204;49.980;8.358;2023-01-28T13:13:40;2.75;71.52
72277;SHT30;61204;49.980;8.358;2023-01-28T13:16:08;2.65;71.76
72277;SHT30;61204;49.980;8.358;2023-01-28T13:24:34;2.89;71.53
72277;SHT30;61204;49.980;8.358;2023-01-28T13:26:47;3.03;71.24
72277;SHT30;61204;49.980;8.358;2023-01-28T13:29:30;3.00;71.02
72277;SHT30;61204;49.980;8.358;2023-01-28T13:32:02;2.95;71.11
72277;SHT30;61204;49.980;8.358;2023-01-28T13:34:56;2.69;71.00
72277;SHT30;61204;49.980;8.358;2023-01-28T13:37:33;2.85;71.29
72277;SHT30;61204;49.980;8.358;2023-01-28T13:42:36;2.88;70.80
72277;SHT30;61204;49.980;8.358;2023-01-28T13:45:32;2.86;70.75
72277;SHT30;61204;49.980;8.358;2023-01-28T13:48:17;2.91;70.59
72277;SHT30;61204;49.980;8.358;2023-01-28T13:50:52;2.91;69.90
72277;SHT30;61204;49.980;8.358;2023-01-28T13:53:40;2.74;70.29
72277;SHT30;61204;49.980;8.358;2023-01-28T13:56:21;2.71;68.94
72277;SHT30;61204;49.980;8.358;2023-01-28T14:06:12;2.66;69.47
72277;SHT30;61204;49.980;8.358;2023-01-28T14:18:43;2.76;68.41
72277;SHT30;61204;49.980;8.358;2023-01-28T14:21:18;2.71;68.15
72277;SHT30;61204;49.980;8.358;2023-01-28T14:23:51;2.74;68.20
72277;SHT30;61204;49.980;8.358;2023-01-28T14:26:31;2.58;67.56
72277;SHT30;61204;49.980;8.358;2023-01-28T14:32:18;2.69;66.80
72277;SHT30;61204;49.980;8.358;2023-01-28T14:34:52;2.68;67.01
72277;SHT30;61204;49.980;8.358;2023-01-28T14:37:20;2.69;67.48
72277;SHT30;61204;49.980;8.358;2023-01-28T14:39:57;2.64;67.14
72277;SHT30;61204;49.980;8.358;2023-01-28T14:42:30;2.61;67.43
72277;SHT30;61204;49.980;8.358;2023-01-28T14:48:21;2.54;65.28
72277;SHT30;61204;49.980;8.358;2023-01-28T14:57:55;2.62;65.99
72277;SHT30;61204;49.980;8.358;2023-01-28T15:00:24;2.74;67.80
72277;SHT30;61204;49.980;8.358;2023-01-28T15:02:52;2.82;66.28
72277;SHT30;61204;49.980;8.358;2023-01-28T15:05:21;2.75;66.45
72277;SHT30;61204;49.980;8.358;2023-01-28T15:07:49;2.62;66.66
72277;SHT30;61204;49.980;8.358;2023-01-28T15:10:29;2.78;66.66
72277;SHT30;61204;49.980;8.358;2023-01-28T15:13:02;2.62;66.07
72277;SHT30;61204;49.980;8.358;2023-01-28T15:15:34;2.65;67.01
72277;SHT30;61204;49.980;8.358;2023-01-28T15:18:12;2.64;66.96
72277;SHT30;61204;49.980;8.358;2023-01-28T15:20:45;2.61;67.81
72277;SHT30;61204;49.980;8.358;2023-01-28T15:23:16;2.64;67.06
72277;SHT30;61204;49.980;8.358;2023-01-28T15:25:45;2.66;67.20
72277;SHT30;61204;49.980;8.358;2023-01-28T15:28:24;2.62;67.46
72277;SHT30;61204;49.980;8.358;2023-01-28T15:30:53;2.61;67.60
72277;SHT30;61204;49.980;8.358;2023-01-28T15:33:20;2.48;66.94
72277;SHT30;61204;49.980;8.358;2023-01-28T15:35:52;2.40;66.64
72277;SHT30;61204;49.980;8.358;2023-01-28T15:38:19;2.26;66.39
72277;SHT30;61204;49.980;8.358;2023-01-28T15:40:54;2.24;66.75
72277;SHT30;61204;49.980;8.358;2023-01-28T15:43:29;2.29;67.44
72277;SHT30;61204;49.980;8.358;2023-01-28T15:45:57;2.24;66.80
72277;SHT30;61204;49.980;8.358;2023-01-28T15:48:31;2.23;66.69
72277;SHT30;61204;49.980;8.358;2023-01-28T15:51:06;2.23;66.95
72277;SHT30;61204;49.980;8.358;2023-01-28T15:53:43;2.26;66.92
72277;SHT30;61204;49.980;8.358;2023-01-28T15:56:13;2.24;67.18
72277;SHT30;61204;49.980;8.358;2023-01-28T15:58:40;2.24;66.75
72277;SHT30;61204;49.980;8.358;2023-01-28T16:03:32;2.19;66.84
72277;SHT30;61204;49.980;8.358;2023-01-28T16:06:01;2.10;66.87
72277;SHT30;61204;49.980;8.358;2023-01-28T16:08:38;2.06;67.20
72277;SHT30;61204;49.980;8.358;2023-01-28T16:11:09;1.96;67.31
72277;SHT30;61204;49.980;8.358;2023-01-28T16:13:35;1.85;67.35
72277;SHT30;61204;49.980;8.358;2023-01-28T16:16:07;1.89;67.46
72277;SHT30;61204;49.980;8.358;2023-01-28T16:18:45;1.87;67.44
72277;SHT30;61204;49.980;8.358;2023-01-28T16:21:44;1.82;67.56
72277;SHT30;61204;49.980;8.358;2023-01-28T16:24:23;1.79;68.09
72277;SHT30;61204;49.980;8.358;2023-01-28T16:27:05;1.75;67.44
72277;SHT30;61204;49.980;8.358;2023-01-28T16:29:44;1.76;69.21
72277;SHT30;61204;49.980;8.358;2023-01-28T16:32:45;1.71;68.44
72277;SHT30;61204;49.980;8.358;2023-01-28T16:35:19;1.68;68.24
72277;SHT30;61204;49.980;8.358;2023-01-28T16:37:47;1.71;68.82
72277;SHT30;61204;49.980;8.358;2023-01-28T16:40:15;1.71;69.12
72277;SHT30;61204;49.980;8.358;2023-01-28T16:42:43;1.65;68.85
72277;SHT30;61204;49.980;8.358;2023-01-28T16:45:23;1.61;69.26
72277;SHT30;61204;49.980;8.358;2023-01-28T16:47:50;1.57;68.13
72277;SHT30;61204;49.980;8.358;2023-01-28T16:50:18;1.54;67.94
72277;SHT30;61204;49.980;8.358;2023-01-28T16:52:47;1.54;67.47
72277;SHT30;61204;49.980;8.358;2023-01-28T16:55:17;1.51;67.88
72277;SHT30;61204;49.980;8.358;2023-01-28T16:57:46;1.54;67.80
72277;SHT30;61204;49.980;8.358;2023-01-28T17:00:25;1.54;68.02
72277;SHT30;61204;49.980;8.358;2023-01-28T17:02:52;1.57;68.78
72277;SHT30;61204;49.980;8.358;2023-01-28T17:05:20;1.54;69.34
72277;SHT30;61204;49.980;8.358;2023-01-28T17:07:47;1.54;68.84
72277;SHT30;61204;49.980;8.358;2023-01-28T17:10:18;1.57;68.96
72277;SHT30;61204;49.980;8.358;2023-01-28T17:12:46;1.55;68.39
72277;SHT30;61204;49.980;8.358;2023-01-28T17:15:13;1.52;68.81
72277;SHT30;61204;49.980;8.358;2023-01-28T17:17:38;1.47;69.79
72277;SHT30;61204;49.980;8.358;2023-01-28T17:20:04;1.43;69.76
72277;SHT30;61204;49.980;8.358;2023-01-28T17:22:30;1.43;70.09
72277;SHT30;61204;49.980;8.358;2023-01-28T17:24:56;1.36;69.02
72277;SHT30;61204;49.980;8.358;2023-01-28T17:27:21;1.34;69.24
72277;SHT30;61204;49.980;8.358;2023-01-28T17:29:47;1.29;69.43
72277;SHT30;61204;49.980;8.358;2023-01-28T17:32:14;1.31;69.58
72277;SHT30;61204;49.980;8.358;2023-01-28T17:34:40;1.26;69.23
72277;SHT30;61204;49.980;8.358;2023-01-28T17:37:05;1.22;69.29
72277;SHT30;61204;49.980;8.358;2023-01-28T17:39:31;1.13;69.45
72277;SHT30;61204;49.980;8.358;2023-01-28T17:41:59;1.12;70.18
72277;SHT30;61204;49.980;8.358;2023-01-28T17:44:24;1.09;69.82
72277;SHT30;61204;49.980;8.358;2023-01-28T17:46:49;1.05;70.09
72277;SHT30;61204;49.980;8.358;2023-01-28T17:49:15;0.99;70.35
72277;SHT30;61204;49.980;8.358;2023-01-28T17:51:40;0.96;70.30
72277;SHT30;61204;49.980;8.358;2023-01-28T17:54:06;0.92;70.48
72277;SHT30;61204;49.980;8.358;2023-01-28T17:56:31;0.84;71.21
72277;SHT30;61204;49.980;8.358;2023-01-28T17:59:01;0.78;71.64
72277;SHT30;61204;49.980;8.358;2023-01-28T18:01:29;0.75;72.02
72277;SHT30;61204;49.980;8.358;2023-01-28T18:03:56;0.75;72.05
72277;SHT30;61204;49.980;8.358;2023-01-28T18:06:22;0.75;72.22
72277;SHT30;61204;49.980;8.358;2023-01-28T18:08:48;0.77;72.29
72277;SHT30;61204;49.980;8.358;2023-01-28T18:11:15;0.81;71.97